OICI

Ilam Airport

Airport
ICAO code
OICI
IATA Code
IIL
Summary
ICAO Region
MID
ICAO Territory
Location

Ilam, Ilam Province

Serving
Ilam
Elevation
4404 ft
Coordinates
33° 35' 11" N , 46° 23' 58" E
KCC
Metar
Observation
OICI 070300Z 12004KT 7000 NSC 02/M00 Q1022 A3018
Station
Ilam
Date/Time
2022-12-07 03:00:00
Wind direction
120°
Wind speed
04 kts
Lowest cloud amount
nil significant cloud
Temperature
2°C
Dew point
-0°C
Humidity
86%
QNH
1022 hPa
Weather condition
n/a

Domestic airport 6km south of the centre of Ilam, Iran.

Climatology

Warm Desert climate (Köppen climate classification BWh).

Runways

Designator Length Width Surface Rops
14/32 2799 45 ASP No/No

Airport map

Aerial View

SKYbrary Partners:

Safety knowledge contributed by: